sensor_id;sensor_type;location;lat;lon;timestamp;P1;durP1;ratioP1;P2;durP2;ratioP2
37495;SDS011;23346;52.088;4.746;2023-07-09T00:00:36;78.88;;;74.70;;
37495;SDS011;23346;52.088;4.746;2023-07-09T00:03:02;76.82;;;72.45;;
37495;SDS011;23346;52.088;4.746;2023-07-09T00:05:28;78.05;;;73.72;;
37495;SDS011;23346;52.088;4.746;2023-07-09T00:07:54;74.68;;;70.22;;
37495;SDS011;23346;52.088;4.746;2023-07-09T00:10:20;78.18;;;73.75;;
37495;SDS011;23346;52.088;4.746;2023-07-09T00:12:46;83.95;;;79.35;;
37495;SDS011;23346;52.088;4.746;2023-07-09T00:15:13;80.95;;;75.97;;
37495;SDS011;23346;52.088;4.746;2023-07-09T00:17:40;80.47;;;75.97;;
37495;SDS011;23346;52.088;4.746;2023-07-09T00:20:10;83.15;;;78.47;;
37495;SDS011;23346;52.088;4.746;2023-07-09T00:22:37;84.43;;;79.47;;
37495;SDS011;23346;52.088;4.746;2023-07-09T00:25:04;86.18;;;81.32;;
37495;SDS011;23346;52.088;4.746;2023-07-09T00:27:30;76.63;;;72.07;;
37495;SDS011;23346;52.088;4.746;2023-07-09T00:29:56;77.55;;;73.05;;
37495;SDS011;23346;52.088;4.746;2023-07-09T00:32:22;72.78;;;68.40;;
37495;SDS011;23346;52.088;4.746;2023-07-09T00:34:50;77.72;;;73.07;;
37495;SDS011;23346;52.088;4.746;2023-07-09T00:37:18;81.38;;;76.53;;
37495;SDS011;23346;52.088;4.746;2023-07-09T00:39:45;76.70;;;72.03;;
37495;SDS011;23346;52.088;4.746;2023-07-09T00:42:12;78.43;;;73.70;;
37495;SDS011;23346;52.088;4.746;2023-07-09T00:44:39;73.88;;;69.45;;
37495;SDS011;23346;52.088;4.746;2023-07-09T00:47:14;72.00;;;67.85;;
37495;SDS011;23346;52.088;4.746;2023-07-09T00:49:42;75.50;;;70.50;;
37495;SDS011;23346;52.088;4.746;2023-07-09T00:52:26;72.60;;;68.32;;
37495;SDS011;23346;52.088;4.746;2023-07-09T00:54:54;75.43;;;70.72;;
37495;SDS011;23346;52.088;4.746;2023-07-09T00:57:22;77.10;;;72.47;;
37495;SDS011;23346;52.088;4.746;2023-07-09T00:59:51;74.45;;;69.90;;
37495;SDS011;23346;52.088;4.746;2023-07-09T01:02:18;78.63;;;73.88;;
37495;SDS011;23346;52.088;4.746;2023-07-09T01:04:48;77.15;;;72.47;;
37495;SDS011;23346;52.088;4.746;2023-07-09T01:07:14;76.13;;;71.63;;
37495;SDS011;23346;52.088;4.746;2023-07-09T01:09:42;70.72;;;66.32;;
37495;SDS011;23346;52.088;4.746;2023-07-09T01:12:08;81.93;;;76.88;;
37495;SDS011;23346;52.088;4.746;2023-07-09T01:14:35;71.22;;;66.93;;
37495;SDS011;23346;52.088;4.746;2023-07-09T01:17:02;75.50;;;70.97;;
37495;SDS011;23346;52.088;4.746;2023-07-09T01:19:30;77.57;;;72.90;;
37495;SDS011;23346;52.088;4.746;2023-07-09T01:21:59;74.63;;;70.20;;
37495;SDS011;23346;52.088;4.746;2023-07-09T01:27:10;71.03;;;66.80;;
37495;SDS011;23346;52.088;4.746;2023-07-09T01:29:36;69.97;;;64.88;;
37495;SDS011;23346;52.088;4.746;2023-07-09T01:32:03;73.07;;;68.25;;
37495;SDS011;23346;52.088;4.746;2023-07-09T01:34:31;72.20;;;67.47;;
37495;SDS011;23346;52.088;4.746;2023-07-09T01:36:57;71.35;;;66.85;;
37495;SDS011;23346;52.088;4.746;2023-07-09T01:39:23;67.20;;;63.05;;
37495;SDS011;23346;52.088;4.746;2023-07-09T01:41:49;67.90;;;63.80;;
37495;SDS011;23346;52.088;4.746;2023-07-09T01:44:15;74.13;;;68.75;;
37495;SDS011;23346;52.088;4.746;2023-07-09T01:46:41;72.78;;;68.28;;
37495;SDS011;23346;52.088;4.746;2023-07-09T01:49:07;74.85;;;70.07;;
37495;SDS011;23346;52.088;4.746;2023-07-09T01:51:34;73.38;;;68.88;;
37495;SDS011;23346;52.088;4.746;2023-07-09T01:54:01;76.55;;;71.60;;
37495;SDS011;23346;52.088;4.746;2023-07-09T01:56:27;74.82;;;69.80;;
37495;SDS011;23346;52.088;4.746;2023-07-09T01:58:54;71.35;;;66.43;;
37495;SDS011;23346;52.088;4.746;2023-07-09T02:01:26;74.60;;;69.65;;
37495;SDS011;23346;52.088;4.746;2023-07-09T02:03:52;73.63;;;68.53;;
37495;SDS011;23346;52.088;4.746;2023-07-09T02:06:18;71.43;;;66.93;;
37495;SDS011;23346;52.088;4.746;2023-07-09T02:08:44;72.53;;;67.63;;
37495;SDS011;23346;52.088;4.746;2023-07-09T02:11:10;70.72;;;66.18;;
37495;SDS011;23346;52.088;4.746;2023-07-09T02:13:36;74.38;;;69.15;;
37495;SDS011;23346;52.088;4.746;2023-07-09T02:16:02;70.80;;;66.13;;
37495;SDS011;23346;52.088;4.746;2023-07-09T02:18:29;69.90;;;64.72;;
37495;SDS011;23346;52.088;4.746;2023-07-09T02:20:55;69.80;;;65.22;;
37495;SDS011;23346;52.088;4.746;2023-07-09T02:23:25;69.43;;;65.22;;
37495;SDS011;23346;52.088;4.746;2023-07-09T02:25:51;71.50;;;66.90;;
37495;SDS011;23346;52.088;4.746;2023-07-09T02:28:17;72.05;;;67.50;;
37495;SDS011;23346;52.088;4.746;2023-07-09T02:30:43;69.10;;;64.78;;
37495;SDS011;23346;52.088;4.746;2023-07-09T02:33:09;67.53;;;63.17;;
37495;SDS011;23346;52.088;4.746;2023-07-09T02:35:35;67.72;;;63.47;;
37495;SDS011;23346;52.088;4.746;2023-07-09T02:38:01;70.63;;;65.75;;
37495;SDS011;23346;52.088;4.746;2023-07-09T02:40:27;71.00;;;65.78;;
37495;SDS011;23346;52.088;4.746;2023-07-09T02:42:53;69.00;;;64.57;;
37495;SDS011;23346;52.088;4.746;2023-07-09T02:45:19;70.07;;;65.90;;
37495;SDS011;23346;52.088;4.746;2023-07-09T02:47:45;68.10;;;63.65;;
37495;SDS011;23346;52.088;4.746;2023-07-09T02:50:11;67.80;;;63.15;;
37495;SDS011;23346;52.088;4.746;2023-07-09T02:52:37;69.65;;;65.22;;
37495;SDS011;23346;52.088;4.746;2023-07-09T02:55:03;69.57;;;64.63;;
37495;SDS011;23346;52.088;4.746;2023-07-09T02:57:29;69.20;;;64.82;;
37495;SDS011;23346;52.088;4.746;2023-07-09T02:59:55;69.95;;;65.22;;
37495;SDS011;23346;52.088;4.746;2023-07-09T03:02:21;67.60;;;62.90;;
37495;SDS011;23346;52.088;4.746;2023-07-09T03:04:47;68.03;;;63.30;;
37495;SDS011;23346;52.088;4.746;2023-07-09T03:07:13;67.80;;;63.25;;
37495;SDS011;23346;52.088;4.746;2023-07-09T03:09:39;64.97;;;60.33;;
37495;SDS011;23346;52.088;4.746;2023-07-09T03:12:05;67.07;;;62.47;;
37495;SDS011;23346;52.088;4.746;2023-07-09T03:14:31;64.00;;;59.80;;
37495;SDS011;23346;52.088;4.746;2023-07-09T03:16:58;66.90;;;62.55;;
37495;SDS011;23346;52.088;4.746;2023-07-09T03:19:24;72.05;;;67.07;;
37495;SDS011;23346;52.088;4.746;2023-07-09T03:21:49;62.08;;;57.90;;
37495;SDS011;23346;52.088;4.746;2023-07-09T03:24:15;64.50;;;60.08;;
37495;SDS011;23346;52.088;4.746;2023-07-09T03:26:43;67.53;;;62.55;;
37495;SDS011;23346;52.088;4.746;2023-07-09T03:29:09;63.25;;;58.75;;
37495;SDS011;23346;52.088;4.746;2023-07-09T03:31:35;70.43;;;65.82;;
37495;SDS011;23346;52.088;4.746;2023-07-09T03:34:01;63.05;;;59.03;;
37495;SDS011;23346;52.088;4.746;2023-07-09T03:36:27;62.10;;;58.00;;
37495;SDS011;23346;52.088;4.746;2023-07-09T03:38:53;61.53;;;57.35;;
37495;SDS011;23346;52.088;4.746;2023-07-09T03:41:19;63.40;;;58.92;;
37495;SDS011;23346;52.088;4.746;2023-07-09T03:43:45;68.25;;;63.47;;
37495;SDS011;23346;52.088;4.746;2023-07-09T03:46:11;66.13;;;61.55;;
37495;SDS011;23346;52.088;4.746;2023-07-09T03:48:37;69.28;;;63.72;;
37495;SDS011;23346;52.088;4.746;2023-07-09T03:51:04;73.75;;;67.80;;
37495;SDS011;23346;52.088;4.746;2023-07-09T03:53:30;71.10;;;65.57;;
37495;SDS011;23346;52.088;4.746;2023-07-09T03:55:56;70.00;;;64.50;;
37495;SDS011;23346;52.088;4.746;2023-07-09T03:58:23;71.97;;;66.07;;
37495;SDS011;23346;52.088;4.746;2023-07-09T04:00:50;71.95;;;66.32;;
37495;SDS011;23346;52.088;4.746;2023-07-09T04:03:16;70.20;;;64.63;;
37495;SDS011;23346;52.088;4.746;2023-07-09T04:05:42;69.75;;;63.90;;
37495;SDS011;23346;52.088;4.746;2023-07-09T04:08:08;73.28;;;67.70;;
37495;SDS011;23346;52.088;4.746;2023-07-09T04:10:34;71.60;;;65.85;;
37495;SDS011;23346;52.088;4.746;2023-07-09T04:13:00;69.32;;;63.72;;
37495;SDS011;23346;52.088;4.746;2023-07-09T04:15:26;68.15;;;62.70;;
37495;SDS011;23346;52.088;4.746;2023-07-09T04:17:52;72.40;;;67.00;;
37495;SDS011;23346;52.088;4.746;2023-07-09T04:20:19;67.85;;;63.17;;
37495;SDS011;23346;52.088;4.746;2023-07-09T04:22:45;75.18;;;69.35;;
37495;SDS011;23346;52.088;4.746;2023-07-09T04:25:11;78.63;;;72.65;;
37495;SDS011;23346;52.088;4.746;2023-07-09T04:27:38;74.13;;;68.70;;
37495;SDS011;23346;52.088;4.746;2023-07-09T04:30:05;73.00;;;67.65;;
37495;SDS011;23346;52.088;4.746;2023-07-09T04:32:31;72.13;;;66.88;;
37495;SDS011;23346;52.088;4.746;2023-07-09T04:34:57;71.20;;;66.03;;
37495;SDS011;23346;52.088;4.746;2023-07-09T04:37:23;69.47;;;64.00;;
37495;SDS011;23346;52.088;4.746;2023-07-09T04:39:49;71.38;;;66.07;;
37495;SDS011;23346;52.088;4.746;2023-07-09T04:42:15;71.90;;;66.47;;
37495;SDS011;23346;52.088;4.746;2023-07-09T04:44:41;73.88;;;67.80;;
37495;SDS011;23346;52.088;4.746;2023-07-09T04:47:08;76.35;;;70.60;;
37495;SDS011;23346;52.088;4.746;2023-07-09T04:49:34;73.55;;;68.38;;
37495;SDS011;23346;52.088;4.746;2023-07-09T04:52:00;71.45;;;66.28;;
37495;SDS011;23346;52.088;4.746;2023-07-09T04:54:26;73.50;;;68.22;;
37495;SDS011;23346;52.088;4.746;2023-07-09T04:56:52;76.00;;;70.45;;
37495;SDS011;23346;52.088;4.746;2023-07-09T04:59:18;73.93;;;68.15;;
37495;SDS011;23346;52.088;4.746;2023-07-09T05:01:45;78.80;;;72.78;;
37495;SDS011;23346;52.088;4.746;2023-07-09T05:04:11;72.22;;;67.05;;
37495;SDS011;23346;52.088;4.746;2023-07-09T05:06:37;73.18;;;67.90;;
37495;SDS011;23346;52.088;4.746;2023-07-09T05:09:03;76.90;;;71.15;;
37495;SDS011;23346;52.088;4.746;2023-07-09T05:11:30;73.65;;;68.30;;
37495;SDS011;23346;52.088;4.746;2023-07-09T05:13:56;74.00;;;68.38;;
37495;SDS011;23346;52.088;4.746;2023-07-09T05:16:22;75.57;;;70.13;;
37495;SDS011;23346;52.088;4.746;2023-07-09T05:18:48;74.20;;;68.93;;
37495;SDS011;23346;52.088;4.746;2023-07-09T05:21:14;74.60;;;68.97;;
37495;SDS011;23346;52.088;4.746;2023-07-09T05:23:40;70.38;;;65.50;;
37495;SDS011;23346;52.088;4.746;2023-07-09T05:26:06;76.95;;;71.53;;
37495;SDS011;23346;52.088;4.746;2023-07-09T05:28:32;77.18;;;71.88;;
37495;SDS011;23346;52.088;4.746;2023-07-09T05:30:58;74.68;;;69.68;;
37495;SDS011;23346;52.088;4.746;2023-07-09T05:33:24;79.75;;;74.20;;
37495;SDS011;23346;52.088;4.746;2023-07-09T05:35:50;77.82;;;72.35;;
37495;SDS011;23346;52.088;4.746;2023-07-09T05:38:16;75.25;;;70.20;;
37495;SDS011;23346;52.088;4.746;2023-07-09T05:40:42;79.00;;;73.45;;
37495;SDS011;23346;52.088;4.746;2023-07-09T05:43:08;75.55;;;70.40;;
37495;SDS011;23346;52.088;4.746;2023-07-09T05:45:34;80.95;;;75.35;;
37495;SDS011;23346;52.088;4.746;2023-07-09T05:48:00;77.45;;;71.90;;
37495;SDS011;23346;52.088;4.746;2023-07-09T05:50:27;78.85;;;73.43;;
37495;SDS011;23346;52.088;4.746;2023-07-09T05:52:53;81.55;;;75.82;;
37495;SDS011;23346;52.088;4.746;2023-07-09T05:55:19;79.82;;;74.35;;
37495;SDS011;23346;52.088;4.746;2023-07-09T05:57:44;78.32;;;72.75;;
37495;SDS011;23346;52.088;4.746;2023-07-09T06:00:11;76.18;;;70.80;;
37495;SDS011;23346;52.088;4.746;2023-07-09T06:02:37;77.35;;;72.43;;
37495;SDS011;23346;52.088;4.746;2023-07-09T06:05:03;80.65;;;75.57;;
37495;SDS011;23346;52.088;4.746;2023-07-09T06:07:29;79.88;;;74.65;;
37495;SDS011;23346;52.088;4.746;2023-07-09T06:09:55;79.72;;;74.43;;
37495;SDS011;23346;52.088;4.746;2023-07-09T06:12:22;79.97;;;74.78;;
37495;SDS011;23346;52.088;4.746;2023-07-09T06:14:48;77.18;;;71.80;;
37495;SDS011;23346;52.088;4.746;2023-07-09T06:17:14;81.43;;;75.38;;
37495;SDS011;23346;52.088;4.746;2023-07-09T06:19:40;82.85;;;77.63;;
37495;SDS011;23346;52.088;4.746;2023-07-09T06:22:06;82.75;;;76.97;;
37495;SDS011;23346;52.088;4.746;2023-07-09T06:24:32;77.25;;;72.40;;
37495;SDS011;23346;52.088;4.746;2023-07-09T06:26:58;78.82;;;73.90;;
37495;SDS011;23346;52.088;4.746;2023-07-09T06:29:24;86.25;;;80.43;;
37495;SDS011;23346;52.088;4.746;2023-07-09T06:31:50;82.30;;;76.57;;
37495;SDS011;23346;52.088;4.746;2023-07-09T06:34:16;80.97;;;75.65;;
37495;SDS011;23346;52.088;4.746;2023-07-09T06:36:42;83.65;;;78.20;;
37495;SDS011;23346;52.088;4.746;2023-07-09T06:39:08;80.72;;;74.88;;
37495;SDS011;23346;52.088;4.746;2023-07-09T06:41:34;85.78;;;79.95;;
37495;SDS011;23346;52.088;4.746;2023-07-09T06:44:04;82.30;;;76.68;;
37495;SDS011;23346;52.088;4.746;2023-07-09T06:46:30;83.65;;;77.60;;
37495;SDS011;23346;52.088;4.746;2023-07-09T06:48:56;86.82;;;81.00;;
37495;SDS011;23346;52.088;4.746;2023-07-09T06:51:22;85.82;;;80.10;;
37495;SDS011;23346;52.088;4.746;2023-07-09T06:53:48;92.22;;;84.93;;
37495;SDS011;23346;52.088;4.746;2023-07-09T06:56:15;86.38;;;80.43;;
37495;SDS011;23346;52.088;4.746;2023-07-09T06:58:41;87.95;;;81.70;;
37495;SDS011;23346;52.088;4.746;2023-07-09T07:01:07;84.78;;;78.70;;
37495;SDS011;23346;52.088;4.746;2023-07-09T07:03:34;90.72;;;84.22;;
37495;SDS011;23346;52.088;4.746;2023-07-09T07:06:00;89.47;;;83.25;;
37495;SDS011;23346;52.088;4.746;2023-07-09T07:08:27;93.25;;;86.80;;
37495;SDS011;23346;52.088;4.746;2023-07-09T07:10:54;86.00;;;79.65;;
37495;SDS011;23346;52.088;4.746;2023-07-09T07:13:34;95.85;;;89.40;;
37495;SDS011;23346;52.088;4.746;2023-07-09T07:16:01;95.03;;;88.53;;
37495;SDS011;23346;52.088;4.746;2023-07-09T07:18:27;96.05;;;89.60;;
37495;SDS011;23346;52.088;4.746;2023-07-09T07:20:53;92.47;;;86.35;;
37495;SDS011;23346;52.088;4.746;2023-07-09T07:23:19;120.20;;;113.03;;
37495;SDS011;23346;52.088;4.746;2023-07-09T07:25:45;110.28;;;103.22;;
37495;SDS011;23346;52.088;4.746;2023-07-09T07:28:11;115.00;;;108.03;;
37495;SDS011;23346;52.088;4.746;2023-07-09T07:30:38;99.07;;;93.03;;
37495;SDS011;23346;52.088;4.746;2023-07-09T07:33:03;89.45;;;83.82;;
37495;SDS011;23346;52.088;4.746;2023-07-09T07:35:29;89.28;;;83.50;;
37495;SDS011;23346;52.088;4.746;2023-07-09T07:37:55;89.55;;;84.20;;
37495;SDS011;23346;52.088;4.746;2023-07-09T07:40:21;86.25;;;80.50;;
37495;SDS011;23346;52.088;4.746;2023-07-09T07:42:47;95.95;;;88.68;;
37495;SDS011;23346;52.088;4.746;2023-07-09T07:45:13;90.15;;;84.53;;
37495;SDS011;23346;52.088;4.746;2023-07-09T07:47:39;83.95;;;78.60;;
37495;SDS011;23346;52.088;4.746;2023-07-09T07:50:06;84.63;;;79.63;;
37495;SDS011;23346;52.088;4.746;2023-07-09T07:52:32;87.53;;;82.03;;
37495;SDS011;23346;52.088;4.746;2023-07-09T07:55:03;82.00;;;76.95;;
37495;SDS011;23346;52.088;4.746;2023-07-09T07:57:29;85.88;;;80.85;;
37495;SDS011;23346;52.088;4.746;2023-07-09T07:59:55;86.25;;;81.35;;
37495;SDS011;23346;52.088;4.746;2023-07-09T08:02:22;79.65;;;75.07;;
37495;SDS011;23346;52.088;4.746;2023-07-09T08:04:48;79.30;;;74.88;;
37495;SDS011;23346;52.088;4.746;2023-07-09T08:07:16;80.63;;;75.90;;
37495;SDS011;23346;52.088;4.746;2023-07-09T08:09:42;77.88;;;73.15;;
37495;SDS011;23346;52.088;4.746;2023-07-09T08:12:08;79.97;;;75.50;;
37495;SDS011;23346;52.088;4.746;2023-07-09T08:14:37;77.85;;;73.43;;
37495;SDS011;23346;52.088;4.746;2023-07-09T08:17:03;73.82;;;69.63;;
37495;SDS011;23346;52.088;4.746;2023-07-09T08:19:30;88.15;;;82.90;;
37495;SDS011;23346;52.088;4.746;2023-07-09T08:21:56;72.68;;;68.53;;
37495;SDS011;23346;52.088;4.746;2023-07-09T08:24:22;82.28;;;77.35;;
37495;SDS011;23346;52.088;4.746;2023-07-09T08:26:48;79.60;;;74.90;;
37495;SDS011;23346;52.088;4.746;2023-07-09T08:29:14;79.78;;;75.35;;
37495;SDS011;23346;52.088;4.746;2023-07-09T08:31:40;80.85;;;76.30;;
37495;SDS011;23346;52.088;4.746;2023-07-09T08:34:07;76.85;;;72.53;;
37495;SDS011;23346;52.088;4.746;2023-07-09T08:36:33;73.22;;;68.60;;
37495;SDS011;23346;52.088;4.746;2023-07-09T08:39:00;74.65;;;70.45;;
37495;SDS011;23346;52.088;4.746;2023-07-09T08:41:39;78.63;;;74.13;;
37495;SDS011;23346;52.088;4.746;2023-07-09T08:49:14;73.72;;;69.07;;
37495;SDS011;23346;52.088;4.746;2023-07-09T08:51:43;74.95;;;70.72;;
37495;SDS011;23346;52.088;4.746;2023-07-09T08:54:12;79.53;;;75.28;;
37495;SDS011;23346;52.088;4.746;2023-07-09T08:56:40;80.88;;;76.22;;
37495;SDS011;23346;52.088;4.746;2023-07-09T08:59:07;81.05;;;76.68;;
37495;SDS011;23346;52.088;4.746;2023-07-09T09:01:36;79.47;;;75.18;;
37495;SDS011;23346;52.088;4.746;2023-07-09T09:04:13;76.63;;;72.22;;
37495;SDS011;23346;52.088;4.746;2023-07-09T09:06:39;72.60;;;68.40;;
37495;SDS011;23346;52.088;4.746;2023-07-09T09:12:20;71.88;;;67.78;;
37495;SDS011;23346;52.088;4.746;2023-07-09T09:14:36;74.60;;;70.53;;
37495;SDS011;23346;52.088;4.746;2023-07-09T09:17:07;75.07;;;70.60;;
37495;SDS011;23346;52.088;4.746;2023-07-09T09:19:43;77.60;;;73.28;;
37495;SDS011;23346;52.088;4.746;2023-07-09T09:22:11;71.38;;;67.43;;
37495;SDS011;23346;52.088;4.746;2023-07-09T09:24:48;80.68;;;76.07;;
37495;SDS011;23346;52.088;4.746;2023-07-09T09:27:18;76.88;;;72.28;;
37495;SDS011;23346;52.088;4.746;2023-07-09T09:29:44;75.95;;;71.57;;
37495;SDS011;23346;52.088;4.746;2023-07-09T09:32:25;78.28;;;73.75;;
37495;SDS011;23346;52.088;4.746;2023-07-09T09:34:51;70.53;;;66.63;;
37495;SDS011;23346;52.088;4.746;2023-07-09T09:39:49;79.25;;;74.65;;
37495;SDS011;23346;52.088;4.746;2023-07-09T09:42:15;75.68;;;71.20;;
37495;SDS011;23346;52.088;4.746;2023-07-09T09:44:44;73.80;;;69.32;;
37495;SDS011;23346;52.088;4.746;2023-07-09T09:47:11;74.05;;;69.85;;
37495;SDS011;23346;52.088;4.746;2023-07-09T09:49:38;75.07;;;71.07;;
37495;SDS011;23346;52.088;4.746;2023-07-09T09:52:06;70.22;;;66.10;;
37495;SDS011;23346;52.088;4.746;2023-07-09T09:54:36;64.78;;;61.00;;
37495;SDS011;23346;52.088;4.746;2023-07-09T09:57:13;66.30;;;62.72;;
37495;SDS011;23346;52.088;4.746;2023-07-09T09:59:41;64.15;;;60.58;;
37495;SDS011;23346;52.088;4.746;2023-07-09T10:02:17;61.60;;;57.85;;
37495;SDS011;23346;52.088;4.746;2023-07-09T10:04:44;60.45;;;57.28;;
37495;SDS011;23346;52.088;4.746;2023-07-09T10:07:10;65.30;;;61.60;;
37495;SDS011;23346;52.088;4.746;2023-07-09T10:12:16;58.47;;;55.13;;
37495;SDS011;23346;52.088;4.746;2023-07-09T10:14:53;56.70;;;53.42;;
37495;SDS011;23346;52.088;4.746;2023-07-09T10:17:23;53.63;;;50.67;;
37495;SDS011;23346;52.088;4.746;2023-07-09T10:19:57;52.08;;;49.00;;
37495;SDS011;23346;52.088;4.746;2023-07-09T10:25:01;48.63;;;45.60;;
37495;SDS011;23346;52.088;4.746;2023-07-09T10:27:31;52.50;;;49.40;;
37495;SDS011;23346;52.088;4.746;2023-07-09T10:30:12;61.58;;;58.33;;
37495;SDS011;23346;52.088;4.746;2023-07-09T10:33:01;67.43;;;62.95;;
37495;SDS011;23346;52.088;4.746;2023-07-09T10:38:07;62.05;;;58.55;;
37495;SDS011;23346;52.088;4.746;2023-07-09T10:40:38;58.75;;;55.53;;
37495;SDS011;23346;52.088;4.746;2023-07-09T10:43:05;57.78;;;54.60;;
37495;SDS011;23346;52.088;4.746;2023-07-09T10:45:39;51.42;;;48.50;;
37495;SDS011;23346;52.088;4.746;2023-07-09T10:48:09;51.95;;;48.35;;
37495;SDS011;23346;52.088;4.746;2023-07-09T10:50:36;43.63;;;41.13;;
37495;SDS011;23346;52.088;4.746;2023-07-09T10:53:13;58.45;;;53.63;;
37495;SDS011;23346;52.088;4.746;2023-07-09T10:55:57;39.08;;;36.67;;
37495;SDS011;23346;52.088;4.746;2023-07-09T10:58:35;41.70;;;38.70;;
37495;SDS011;23346;52.088;4.746;2023-07-09T11:01:03;41.22;;;38.72;;
37495;SDS011;23346;52.088;4.746;2023-07-09T11:03:49;39.30;;;37.00;;
37495;SDS011;23346;52.088;4.746;2023-07-09T11:06:24;43.88;;;40.92;;
37495;SDS011;23346;52.088;4.746;2023-07-09T11:08:51;48.17;;;45.17;;
37495;SDS011;23346;52.088;4.746;2023-07-09T11:11:34;47.08;;;44.30;;
37495;SDS011;23346;52.088;4.746;2023-07-09T11:14:02;52.38;;;49.28;;
37495;SDS011;23346;52.088;4.746;2023-07-09T11:16:35;46.97;;;43.78;;
37495;SDS011;23346;52.088;4.746;2023-07-09T11:19:04;53.55;;;49.85;;
37495;SDS011;23346;52.088;4.746;2023-07-09T11:21:31;46.17;;;43.28;;
37495;SDS011;23346;52.088;4.746;2023-07-09T11:23:58;46.60;;;43.88;;
37495;SDS011;23346;52.088;4.746;2023-07-09T11:31:42;43.75;;;40.65;;
37495;SDS011;23346;52.088;4.746;2023-07-09T11:39:20;49.08;;;46.00;;
37495;SDS011;23346;52.088;4.746;2023-07-09T11:41:46;54.53;;;51.22;;
37495;SDS011;23346;52.088;4.746;2023-07-09T11:47:03;56.10;;;52.53;;
37495;SDS011;23346;52.088;4.746;2023-07-09T11:49:32;51.20;;;48.20;;
37495;SDS011;23346;52.088;4.746;2023-07-09T11:52:00;50.58;;;47.38;;
37495;SDS011;23346;52.088;4.746;2023-07-09T11:54:27;48.55;;;45.55;;
37495;SDS011;23346;52.088;4.746;2023-07-09T11:56:57;45.63;;;43.25;;
37495;SDS011;23346;52.088;4.746;2023-07-09T11:59:23;62.15;;;58.85;;
37495;SDS011;23346;52.088;4.746;2023-07-09T12:01:49;59.53;;;56.38;;
37495;SDS011;23346;52.088;4.746;2023-07-09T12:04:18;63.38;;;59.97;;
37495;SDS011;23346;52.088;4.746;2023-07-09T12:06:45;62.30;;;59.17;;
37495;SDS011;23346;52.088;4.746;2023-07-09T12:09:19;69.63;;;65.95;;
37495;SDS011;23346;52.088;4.746;2023-07-09T12:11:46;72.65;;;69.03;;
37495;SDS011;23346;52.088;4.746;2023-07-09T12:14:16;80.55;;;76.55;;
37495;SDS011;23346;52.088;4.746;2023-07-09T12:16:49;74.57;;;70.78;;
37495;SDS011;23346;52.088;4.746;2023-07-09T12:19:19;75.18;;;71.45;;
37495;SDS011;23346;52.088;4.746;2023-07-09T12:21:50;71.82;;;68.10;;
37495;SDS011;23346;52.088;4.746;2023-07-09T12:24:23;77.18;;;73.38;;
37495;SDS011;23346;52.088;4.746;2023-07-09T12:26:53;66.70;;;63.30;;
37495;SDS011;23346;52.088;4.746;2023-07-09T12:29:19;61.30;;;58.20;;
37495;SDS011;23346;52.088;4.746;2023-07-09T12:31:45;56.67;;;53.55;;
37495;SDS011;23346;52.088;4.746;2023-07-09T12:34:12;58.05;;;55.00;;
37495;SDS011;23346;52.088;4.746;2023-07-09T12:36:39;55.50;;;52.80;;
37495;SDS011;23346;52.088;4.746;2023-07-09T12:39:08;69.32;;;65.72;;
37495;SDS011;23346;52.088;4.746;2023-07-09T12:41:38;58.22;;;55.30;;
37495;SDS011;23346;52.088;4.746;2023-07-09T12:44:05;61.20;;;57.78;;
37495;SDS011;23346;52.088;4.746;2023-07-09T12:46:31;56.45;;;53.53;;
37495;SDS011;23346;52.088;4.746;2023-07-09T12:48:57;77.03;;;72.65;;
37495;SDS011;23346;52.088;4.746;2023-07-09T12:51:24;84.38;;;79.65;;
37495;SDS011;23346;52.088;4.746;2023-07-09T12:54:03;54.90;;;51.60;;
37495;SDS011;23346;52.088;4.746;2023-07-09T12:56:36;54.05;;;51.20;;
37495;SDS011;23346;52.088;4.746;2023-07-09T12:59:05;67.07;;;63.08;;
37495;SDS011;23346;52.088;4.746;2023-07-09T13:01:38;69.05;;;65.05;;
37495;SDS011;23346;52.088;4.746;2023-07-09T13:04:04;46.42;;;43.35;;
37495;SDS011;23346;52.088;4.746;2023-07-09T13:06:34;45.88;;;42.58;;
37495;SDS011;23346;52.088;4.746;2023-07-09T13:09:01;46.03;;;43.45;;
37495;SDS011;23346;52.088;4.746;2023-07-09T13:11:33;44.33;;;41.17;;
37495;SDS011;23346;52.088;4.746;2023-07-09T13:14:01;46.35;;;43.05;;
37495;SDS011;23346;52.088;4.746;2023-07-09T13:16:28;66.40;;;62.25;;
37495;SDS011;23346;52.088;4.746;2023-07-09T13:18:54;50.53;;;47.70;;
37495;SDS011;23346;52.088;4.746;2023-07-09T13:21:20;47.85;;;44.85;;
37495;SDS011;23346;52.088;4.746;2023-07-09T13:23:46;44.72;;;41.97;;
37495;SDS011;23346;52.088;4.746;2023-07-09T13:26:13;45.72;;;42.88;;
37495;SDS011;23346;52.088;4.746;2023-07-09T13:28:40;45.33;;;42.15;;
37495;SDS011;23346;52.088;4.746;2023-07-09T13:31:10;102.38;;;96.47;;
37495;SDS011;23346;52.088;4.746;2023-07-09T13:33:37;45.42;;;42.20;;
37495;SDS011;23346;52.088;4.746;2023-07-09T13:36:03;61.80;;;57.95;;
37495;SDS011;23346;52.088;4.746;2023-07-09T13:38:29;58.33;;;54.92;;
37495;SDS011;23346;52.088;4.746;2023-07-09T13:40:56;48.67;;;45.13;;
37495;SDS011;23346;52.088;4.746;2023-07-09T13:45:51;57.72;;;53.15;;
37495;SDS011;23346;52.088;4.746;2023-07-09T13:48:18;53.15;;;49.55;;
37495;SDS011;23346;52.088;4.746;2023-07-09T13:50:45;57.63;;;53.97;;
37495;SDS011;23346;52.088;4.746;2023-07-09T13:53:13;74.55;;;69.30;;
37495;SDS011;23346;52.088;4.746;2023-07-09T13:55:39;58.95;;;54.13;;
37495;SDS011;23346;52.088;4.746;2023-07-09T13:58:08;50.95;;;47.08;;
37495;SDS011;23346;52.088;4.746;2023-07-09T14:00:34;54.80;;;50.72;;
37495;SDS011;23346;52.088;4.746;2023-07-09T14:03:00;57.30;;;53.78;;
37495;SDS011;23346;52.088;4.746;2023-07-09T14:05:26;82.78;;;77.38;;
37495;SDS011;23346;52.088;4.746;2023-07-09T14:07:53;58.97;;;54.38;;
37495;SDS011;23346;52.088;4.746;2023-07-09T14:10:19;62.22;;;58.17;;
37495;SDS011;23346;52.088;4.746;2023-07-09T14:12:46;56.88;;;53.22;;
37495;SDS011;23346;52.088;4.746;2023-07-09T14:15:14;66.85;;;61.88;;
37495;SDS011;23346;52.088;4.746;2023-07-09T14:17:40;64.63;;;60.63;;
37495;SDS011;23346;52.088;4.746;2023-07-09T14:20:08;63.30;;;58.90;;
37495;SDS011;23346;52.088;4.746;2023-07-09T14:22:36;58.55;;;54.85;;
37495;SDS011;23346;52.088;4.746;2023-07-09T14:25:03;59.88;;;56.10;;
37495;SDS011;23346;52.088;4.746;2023-07-09T14:27:29;69.85;;;64.85;;
37495;SDS011;23346;52.088;4.746;2023-07-09T14:29:55;64.55;;;60.35;;
37495;SDS011;23346;52.088;4.746;2023-07-09T14:32:30;75.75;;;71.63;;
37495;SDS011;23346;52.088;4.746;2023-07-09T14:34:57;84.72;;;79.72;;
37495;SDS011;23346;52.088;4.746;2023-07-09T14:37:23;77.30;;;71.38;;
37495;SDS011;23346;52.088;4.746;2023-07-09T14:39:49;90.88;;;84.20;;
37495;SDS011;23346;52.088;4.746;2023-07-09T14:42:15;129.75;;;122.10;;
37495;SDS011;23346;52.088;4.746;2023-07-09T14:44:41;216.60;;;203.13;;
37495;SDS011;23346;52.088;4.746;2023-07-09T14:47:11;168.23;;;158.93;;
37495;SDS011;23346;52.088;4.746;2023-07-09T14:49:38;107.82;;;100.32;;
37495;SDS011;23346;52.088;4.746;2023-07-09T14:52:05;71.53;;;66.18;;
37495;SDS011;23346;52.088;4.746;2023-07-09T14:54:33;68.10;;;63.80;;
37495;SDS011;23346;52.088;4.746;2023-07-09T14:56:59;57.33;;;53.75;;
37495;SDS011;23346;52.088;4.746;2023-07-09T14:59:25;64.53;;;60.35;;